Time;durP1;ratioP1;P1;durP2;ratioP2;P2;SDS_P1;SDS_P2;PMS_P1;PMS_P2;Temp;Humidity;BMP_temperature;BMP_pressure;BME280_temperature;BME280_humidity;BME280_pressure;Samples;Min_cycle;Max_cycle;Signal;HPM_P1;HPM_P2
2022/02/22 00:02:08;;;;;;;1.20;0.70;;;;;;;19.44;49.89;99854.47;4987316;28;20026;-47
2022/02/22 00:04:36;;;;;;;2.08;1.30;;;;;;;19.43;49.96;99852.88;5006172;28;20029;-46
2022/02/22 00:07:05;;;;;;;1.70;1.02;;;;;;;19.42;49.80;99859.16;5006379;28;20038;-52
2022/02/22 00:09:32;;;;;;;1.40;0.70;;;;;;;19.43;49.79;99860.78;5005025;28;20109;-55
2022/02/22 00:11:57;;;;;;;1.73;0.80;;;;;;;19.43;49.72;99863.44;5006661;28;20125;-42
2022/02/22 00:14:24;;;;;;;2.25;1.15;;;;;;;19.42;49.61;99863.66;4987541;28;20113;-45
2022/02/22 00:16:55;;;;;;;2.22;0.90;;;;;;;19.43;49.59;99871.34;5005982;28;20037;-47
2022/02/22 00:19:24;;;;;;;1.77;1.00;;;;;;;19.43;49.57;99876.63;4983158;28;20037;-46
2022/02/22 00:21:50;;;;;;;2.10;0.90;;;;;;;19.42;49.33;99879.50;4989581;28;20029;-40
2022/02/22 00:24:16;;;;;;;2.28;1.23;;;;;;;19.41;49.24;99889.25;5004129;28;20025;-46
2022/02/22 00:26:42;;;;;;;1.55;0.82;;;;;;;19.42;49.42;99890.88;5006208;28;20033;-47
2022/02/22 00:29:08;;;;;;;1.65;0.70;;;;;;;19.42;49.48;99896.16;5003906;28;20651;-51
2022/02/22 00:31:35;;;;;;;2.35;0.82;;;;;;;19.42;49.67;99901.44;5004591;28;20083;-49
2022/02/22 00:34:01;;;;;;;1.70;0.90;;;;;;;19.43;49.60;99908.34;4987415;28;20038;-42
2022/02/22 00:36:27;;;;;;;2.42;0.95;;;;;;;19.43;49.74;99907.53;5006394;28;20120;-45
2022/02/22 00:38:52;;;;;;;2.28;1.13;;;;;;;19.43;49.58;99912.81;5006586;28;20465;-48
2022/02/22 00:41:18;;;;;;;2.03;1.13;;;;;;;19.41;49.59;99917.50;5006262;28;20054;-48
2022/02/22 00:43:43;;;;;;;1.20;0.60;;;;;;;19.41;49.54;99918.31;5005354;28;20033;-49
2022/02/22 00:46:09;;;;;;;2.05;0.93;;;;;;;19.41;49.38;99915.66;5005707;28;20210;-48
2022/02/22 00:48:34;;;;;;;2.72;0.70;;;;;;;19.40;49.37;99921.16;5004681;28;20034;-50
2022/02/22 00:51:00;;;;;;;1.85;1.00;;;;;;;19.39;49.53;99928.28;5005831;28;20273;-41
2022/02/22 00:53:26;;;;;;;1.38;0.70;;;;;;;19.41;49.20;99928.06;5005572;28;20346;-50
2022/02/22 00:55:51;;;;;;;1.42;0.63;;;;;;;19.39;49.38;99924.81;5005386;28;20030;-43
2022/02/22 00:58:17;;;;;;;1.15;0.60;;;;;;;19.37;49.34;99925.06;5006292;28;20072;-53
2022/02/22 01:00:43;;;;;;;1.90;0.68;;;;;;;19.35;49.50;99927.13;5005628;28;20065;-48
2022/02/22 01:03:08;;;;;;;1.10;0.63;;;;;;;19.35;49.51;99931.59;5006456;28;20034;-44
2022/02/22 01:05:34;;;;;;;2.00;0.70;;;;;;;19.33;49.59;99928.34;5006243;28;20366;-40
2022/02/22 01:08:01;;;;;;;1.35;0.60;;;;;;;19.32;49.43;99935.47;5005914;28;20133;-52
2022/02/22 01:10:27;;;;;;;1.88;0.85;;;;;;;19.32;49.39;99943.38;5005619;28;20141;-44
2022/02/22 01:12:52;;;;;;;1.60;0.63;;;;;;;19.30;49.45;99942.00;5005642;28;20430;-49
2022/02/22 01:15:18;;;;;;;1.20;0.40;;;;;;;19.29;49.50;99935.91;5004423;28;20038;-56
2022/02/22 01:17:43;;;;;;;1.40;0.57;;;;;;;19.28;49.46;99936.91;5005777;28;20136;-47
2022/02/22 01:20:10;;;;;;;1.15;0.60;;;;;;;19.28;49.33;99936.09;5006114;28;20063;-48
2022/02/22 01:22:36;;;;;;;1.17;0.40;;;;;;;19.27;49.39;99940.59;5006437;28;20061;-37
2022/02/22 01:25:03;;;;;;;1.60;0.82;;;;;;;19.28;49.11;99950.13;5005229;28;20065;-48
2022/02/22 01:27:29;;;;;;;1.50;0.80;;;;;;;19.28;48.87;99955.41;5004900;28;20050;-46
2022/02/22 01:29:54;;;;;;;1.58;0.68;;;;;;;19.26;48.56;99949.53;5005572;28;20040;-38
2022/02/22 01:32:20;;;;;;;1.42;0.40;;;;;;;19.27;48.51;99945.88;5006561;28;20037;-44
2022/02/22 01:34:45;;;;;;;0.95;0.40;;;;;;;19.26;48.52;99957.44;5004493;28;20040;-50
2022/02/22 01:37:11;;;;;;;1.45;0.50;;;;;;;19.25;48.32;99955.81;5005538;28;20042;-48
2022/02/22 01:39:36;;;;;;;2.53;0.50;;;;;;;19.25;48.61;99958.47;5006043;28;20077;-45
2022/02/22 01:42:02;;;;;;;0.90;0.50;;;;;;;19.26;48.62;99964.56;5004740;28;20093;-53
2022/02/22 01:44:28;;;;;;;1.00;0.50;;;;;;;19.25;48.68;99969.03;4987110;28;20374;-45
2022/02/22 01:46:59;;;;;;;2.38;0.40;;;;;;;19.25;48.87;99970.88;5005024;28;20053;-53
2022/02/22 01:49:26;;;;;;;0.93;0.50;;;;;;;19.25;48.94;99968.22;5004767;28;20351;-42
2022/02/22 01:51:52;;;;;;;0.73;0.32;;;;;;;19.22;49.04;99970.25;5004603;28;20034;-47
2022/02/22 01:54:18;;;;;;;1.40;0.40;;;;;;;19.20;48.96;99963.56;5005400;28;20033;-45
2022/02/22 01:56:44;;;;;;;1.10;0.50;;;;;;;19.20;49.13;99971.50;4986851;28;20042;-50
2022/02/22 01:59:11;;;;;;;0.95;0.40;;;;;;;19.20;49.13;99976.78;5007890;28;20049;-47
2022/02/22 02:01:37;;;;;;;1.45;0.60;;;;;;;19.17;48.91;99980.66;5008719;28;20105;-45
2022/02/22 02:04:05;;;;;;;1.00;0.40;;;;;;;19.16;49.23;99997.53;5007763;28;20529;-48
2022/02/22 02:06:36;;;;;;;0.90;0.45;;;;;;;19.15;48.92;99989.81;4989780;28;21234;-46
2022/02/22 02:09:04;;;;;;;1.17;0.52;;;;;;;19.14;48.92;99996.09;5009366;28;20038;-49
2022/02/22 02:11:29;;;;;;;1.58;0.50;;;;;;;19.15;48.92;99997.72;5188323;23;20909;-49
2022/02/22 02:13:55;;;;;;;0.88;0.45;;;;;;;19.13;48.92;99997.13;5008817;28;20033;-45
2022/02/22 02:16:20;;;;;;;1.23;0.45;;;;;;;19.12;48.77;100006.06;5009724;28;20041;-42
2022/02/22 02:18:46;;;;;;;1.10;0.50;;;;;;;19.11;48.86;99996.53;5009415;28;20030;-49
2022/02/22 02:21:14;;;;;;;1.52;0.40;;;;;;;19.09;48.79;99996.75;5009206;28;20064;-53
2022/02/22 02:23:39;;;;;;;1.35;0.50;;;;;;;19.08;48.75;99989.84;5009324;28;20030;-46
2022/02/22 02:26:05;;;;;;;1.23;0.50;;;;;;;19.09;48.68;100006.50;5009341;28;20492;-47
2022/02/22 02:28:30;;;;;;;0.70;0.30;;;;;;;19.09;48.84;100017.06;5009378;28;20040;-47
2022/02/22 02:30:56;;;;;;;0.60;0.30;;;;;;;19.09;48.88;100015.22;5009377;28;20449;-52
2022/02/22 02:33:21;;;;;;;0.50;0.30;;;;;;;19.10;48.57;100018.66;5009166;28;20546;-42
2022/02/22 02:35:46;;;;;;;1.02;0.40;;;;;;;19.10;48.67;100013.38;5009396;28;20038;-39
2022/02/22 02:38:12;;;;;;;1.50;0.47;;;;;;;19.11;48.57;100033.50;5009084;28;20025;-48
2022/02/22 02:40:38;;;;;;;0.90;0.40;;;;;;;19.11;48.45;100036.94;5009260;28;20096;-52
2022/02/22 02:43:03;;;;;;;1.33;0.55;;;;;;;19.11;48.50;100022.94;5009062;28;20018;-47
2022/02/22 02:45:29;;;;;;;0.75;0.30;;;;;;;19.12;48.42;100037.75;5009320;28;20124;-47
2022/02/22 02:47:54;;;;;;;0.80;0.30;;;;;;;19.12;48.37;100035.13;5008891;28;20057;-51
2022/02/22 02:50:20;;;;;;;2.15;0.30;;;;;;;19.11;48.32;100030.84;5009102;28;20485;-48
2022/02/22 02:52:45;;;;;;;0.90;0.38;;;;;;;19.11;48.42;100030.84;5008770;28;20030;-49
2022/02/22 02:55:11;;;;;;;2.33;0.32;;;;;;;19.12;48.45;100035.13;5008817;28;20184;-44
2022/02/22 02:57:38;;;;;;;0.95;0.40;;;;;;;19.12;48.56;100037.75;5008675;28;20028;-49
2022/02/22 03:00:05;;;;;;;0.70;0.30;;;;;;;19.11;48.54;100036.94;5008855;28;20034;-49
2022/02/22 03:02:30;;;;;;;0.63;0.40;;;;;;;19.10;48.38;100030.03;4990907;28;20029;-45
2022/02/22 03:04:59;;;;;;;1.00;0.43;;;;;;;19.09;48.57;100027.63;4990733;28;20037;-52
2022/02/22 03:07:26;;;;;;;0.98;0.40;;;;;;;19.09;48.44;100032.91;5008509;28;20088;-50
2022/02/22 03:09:51;;;;;;;1.90;0.50;;;;;;;19.05;48.45;100032.50;5008495;28;20033;-48
2022/02/22 03:12:17;;;;;;;0.73;0.30;;;;;;;19.04;48.62;100043.28;5008343;28;20045;-50
2022/02/22 03:14:42;;;;;;;0.70;0.40;;;;;;;19.02;48.53;100048.75;5008523;28;20073;-54
2022/02/22 03:17:08;;;;;;;0.70;0.38;;;;;;;19.00;48.76;100061.34;5008399;28;20038;-52
2022/02/22 03:19:33;;;;;;;0.93;0.25;;;;;;;18.99;48.66;100058.94;5008362;28;20034;-49
2022/02/22 03:21:59;;;;;;;1.35;0.43;;;;;;;18.98;48.50;100052.84;5008783;28;20065;-43
2022/02/22 03:24:24;;;;;;;0.60;0.30;;;;;;;18.97;48.47;100059.13;5008269;28;20033;-47
2022/02/22 03:26:50;;;;;;;0.70;0.30;;;;;;;18.96;48.61;100061.97;5008301;28;20041;-50
2022/02/22 03:29:15;;;;;;;0.70;0.20;;;;;;;18.96;48.58;100069.91;5008685;28;20111;-56
2022/02/22 03:31:41;;;;;;;0.70;0.25;;;;;;;18.94;48.47;100080.66;5007962;28;20665;-45
2022/02/22 03:34:06;;;;;;;0.80;0.47;;;;;;;18.93;48.60;100091.44;5008107;28;20022;-54
2022/02/22 03:36:32;;;;;;;1.00;0.30;;;;;;;18.92;48.54;100090.63;5008292;28;20034;-53
2022/02/22 03:38:57;;;;;;;0.85;0.30;;;;;;;18.92;48.58;100100.38;5008029;28;20041;-47
2022/02/22 03:41:24;;;;;;;1.08;0.30;;;;;;;18.90;48.45;100098.75;5008061;28;20121;-50
2022/02/22 03:43:50;;;;;;;0.60;0.20;;;;;;;18.90;48.48;100098.75;5007991;28;20040;-48
2022/02/22 03:46:16;;;;;;;0.70;0.30;;;;;;;18.92;48.41;100103.00;5007776;28;20396;-41
2022/02/22 03:48:41;;;;;;;1.00;0.38;;;;;;;18.93;48.32;100091.44;5008262;28;20469;-46
2022/02/22 03:51:07;;;;;;;0.75;0.35;;;;;;;18.93;48.24;100102.00;5008155;28;20049;-51
2022/02/22 03:53:33;;;;;;;1.70;0.30;;;;;;;18.94;48.26;100111.53;5007735;28;20341;-44
2022/02/22 03:55:58;;;;;;;0.60;0.28;;;;;;;18.94;48.18;100125.53;5007841;28;20030;-47
2022/02/22 03:58:24;;;;;;;0.60;0.30;;;;;;;18.94;48.14;100127.38;5007645;28;20176;-48
2022/02/22 04:00:49;;;;;;;0.70;0.30;;;;;;;18.92;48.04;100127.56;5007591;28;20539;-46
2022/02/22 04:03:15;;;;;;;0.50;0.20;;;;;;;18.92;48.14;100134.69;5007455;28;20177;-49
2022/02/22 04:05:42;;;;;;;0.57;0.30;;;;;;;18.93;48.12;100144.22;5007848;28;20034;-44
2022/02/22 04:08:08;;;;;;;0.88;0.30;;;;;;;18.90;48.06;100138.34;4989770;28;20026;-48
2022/02/22 04:10:33;;;;;;;0.75;0.30;;;;;;;18.90;48.21;100140.97;5007922;28;20614;-49
2022/02/22 04:12:59;;;;;;;7.22;1.17;;;;;;;18.89;48.69;100139.38;5007259;28;20430;-46
2022/02/22 04:15:24;;;;;;;1.40;0.20;;;;;;;18.87;48.94;100143.25;5007407;28;20272;-42
2022/02/22 04:17:50;;;;;;;0.98;0.30;;;;;;;18.86;49.01;100142.44;5007140;28;20022;-48
2022/02/22 04:20:15;;;;;;;0.73;0.20;;;;;;;18.85;48.95;100143.47;5006872;28;20055;-55
2022/02/22 04:22:41;;;;;;;1.60;0.20;;;;;;;18.84;49.02;100141.03;5007329;28;20076;-46
2022/02/22 04:25:07;;;;;;;1.00;0.20;;;;;;;18.84;48.91;100143.66;5007537;28;20034;-49
2022/02/22 04:27:33;;;;;;;0.70;0.30;;;;;;;18.83;48.99;100149.97;5007146;28;20026;-47
2022/02/22 04:29:58;;;;;;;1.48;0.30;;;;;;;18.83;48.84;100149.97;5007169;28;20527;-40
2022/02/22 04:32:24;;;;;;;0.50;0.20;;;;;;;18.82;48.96;100149.16;5007041;28;20030;-52
2022/02/22 04:34:50;;;;;;;0.57;0.28;;;;;;;18.81;48.69;100144.88;5007159;28;20029;-43
2022/02/22 04:37:17;;;;;;;0.47;0.20;;;;;;;18.83;48.84;100157.88;5006932;28;20412;-40
2022/02/22 04:39:47;;;;;;;0.60;0.32;;;;;;;18.81;48.49;100152.81;5006855;28;20029;-54
2022/02/22 04:42:14;;;;;;;1.15;0.20;;;;;;;18.83;48.66;100168.44;5006970;28;20052;-53
2022/02/22 04:44:39;;;;;;;0.60;0.22;;;;;;;18.84;48.38;100168.22;5007232;28;20080;-54
2022/02/22 04:47:08;;;;;;;0.52;0.30;;;;;;;18.84;48.31;100165.59;5007100;28;20041;-47
2022/02/22 04:49:33;;;;;;;1.85;0.20;;;;;;;18.84;48.27;100172.69;5007104;28;20053;-45
2022/02/22 04:51:59;;;;;;;1.17;0.30;;;;;;;18.83;48.18;100177.16;5007248;28;20064;-51
2022/02/22 04:54:24;;;;;;;0.90;0.30;;;;;;;18.83;48.24;100174.53;5006828;28;20393;-52
2022/02/22 04:56:50;;;;;;;0.93;0.25;;;;;;;18.83;48.11;100171.88;5006957;28;20049;-45
2022/02/22 04:59:16;;;;;;;0.70;0.28;;;;;;;18.83;48.30;100181.63;4988953;28;20389;-49
2022/02/22 05:01:41;;;;;;;0.80;0.30;;;;;;;18.83;48.26;100190.34;5006933;28;20046;-42
2022/02/22 05:04:07;;;;;;;1.17;0.30;;;;;;;18.83;48.16;100192.19;5006772;28;20221;-46
2022/02/22 05:06:32;;;;;;;1.20;0.20;;;;;;;18.84;48.14;100209.66;5006741;28;20036;-45
2022/02/22 05:08:58;;;;;;;0.80;0.20;;;;;;;18.84;48.15;100212.28;5006881;28;20037;-52
2022/02/22 05:11:23;;;;;;;0.40;0.20;;;;;;;18.85;48.14;100203.34;5006821;28;20029;-51
2022/02/22 05:13:49;;;;;;;0.68;0.20;;;;;;;18.85;48.06;100196.25;5006874;28;20388;-49
2022/02/22 05:16:15;;;;;;;0.77;0.20;;;;;;;18.87;48.34;100203.97;5006469;28;20056;-50
2022/02/22 05:18:41;;;;;;;0.80;0.20;;;;;;;18.90;48.13;100190.34;5006750;28;20034;-48
2022/02/22 05:21:06;;;;;;;1.23;0.20;;;;;;;18.92;48.33;100192.75;5006867;28;20597;-45
2022/02/22 05:23:35;;;;;;;0.52;0.20;;;;;;;18.94;47.98;100198.66;5006485;28;20034;-49
2022/02/22 05:26:05;;;;;;;0.55;0.20;;;;;;;18.96;48.09;100191.34;5006463;28;20046;-48
2022/02/22 05:28:30;;;;;;;1.20;0.20;;;;;;;18.99;48.27;100199.66;5006525;28;20034;-46
2022/02/22 05:30:56;;;;;;;0.60;0.20;;;;;;;19.02;48.13;100206.34;5006684;28;20037;-40
2022/02/22 05:33:22;;;;;;;0.80;0.20;;;;;;;19.06;48.13;100226.06;5009764;28;20466;-44
2022/02/22 05:35:49;;;;;;;1.02;0.20;;;;;;;19.11;48.12;100236.81;5010519;28;20038;-44
2022/02/22 05:38:15;;;;;;;0.77;0.30;;;;;;;19.15;48.12;100238.03;5010532;28;20096;-44
2022/02/22 05:40:41;;;;;;;0.90;0.20;;;;;;;19.20;48.13;100239.03;5010377;28;20121;-42
2022/02/22 05:43:07;;;;;;;0.60;0.20;;;;;;;19.25;47.95;100230.50;5010569;28;20483;-48
2022/02/22 05:45:33;;;;;;;0.50;0.20;;;;;;;19.28;47.83;100231.91;5009941;28;20029;-48
2022/02/22 05:47:58;;;;;;;0.60;0.38;;;;;;;19.31;47.95;100242.06;5009981;28;20072;-46
2022/02/22 05:50:24;;;;;;;1.10;0.10;;;;;;;19.35;47.76;100243.28;5009864;28;20141;-48
2022/02/22 05:52:52;;;;;;;0.45;0.20;;;;;;;19.38;47.78;100259.50;5010232;28;20277;-44
2022/02/22 05:55:18;;;;;;;0.57;0.22;;;;;;;19.44;47.70;100260.50;5009951;28;20053;-50
2022/02/22 05:57:43;;;;;;;0.60;0.20;;;;;;;19.48;47.73;100253.78;5009859;28;20070;-43
2022/02/22 06:00:10;;;;;;;3.15;0.28;;;;;;;19.52;47.65;100260.31;5009842;28;20049;-44
2022/02/22 06:02:36;;;;;;;0.30;0.20;;;;;;;19.55;47.22;100266.00;4992049;28;20022;-47
2022/02/22 06:05:02;;;;;;;1.17;0.20;;;;;;;19.58;47.35;100263.97;5009969;28;20049;-40
2022/02/22 06:07:29;;;;;;;2.22;0.20;;;;;;;19.61;47.45;100276.75;5009967;28;20139;-45
2022/02/22 06:09:55;;;;;;;0.75;0.20;;;;;;;19.67;47.26;100286.50;4991881;28;20516;-38
2022/02/22 06:12:20;;;;;;;0.60;0.20;;;;;;;19.69;47.16;100287.13;5009357;28;20072;-45
2022/02/22 06:14:46;;;;;;;0.50;0.20;;;;;;;19.75;47.31;100302.16;4991736;28;20030;-42
2022/02/22 06:17:11;;;;;;;0.60;0.20;;;;;;;19.79;47.10;100303.34;5009109;28;20026;-42
2022/02/22 06:19:36;;;;;;;0.60;0.20;;;;;;;19.82;46.89;100308.22;5009044;28;20497;-48
2022/02/22 06:22:02;;;;;;;1.38;0.20;;;;;;;19.86;47.09;100312.84;5009496;28;20508;-47
2022/02/22 06:24:28;;;;;;;0.60;0.20;;;;;;;19.88;46.97;100294.97;5009602;28;20392;-46
2022/02/22 06:26:53;;;;;;;0.63;0.10;;;;;;;19.93;46.92;100294.34;5009329;28;20189;-47
2022/02/22 06:29:19;;;;;;;1.20;0.20;;;;;;;19.96;46.73;100309.78;5009414;28;20578;-48
2022/02/22 06:31:44;;;;;;;0.68;0.20;;;;;;;19.99;46.81;100314.66;5009583;28;20029;-44
2022/02/22 06:34:10;;;;;;;0.50;0.20;;;;;;;20.04;46.60;100312.19;5009406;28;20034;-47
2022/02/22 06:36:35;;;;;;;0.80;0.20;;;;;;;20.07;46.55;100306.47;5009258;28;20385;-41
2022/02/22 06:39:01;;;;;;;0.60;0.30;;;;;;;20.08;46.61;100310.75;5009254;28;20462;-44
2022/02/22 06:41:27;;;;;;;1.25;0.10;;;;;;;20.10;46.35;100324.56;5009168;28;20393;-45
2022/02/22 06:43:53;;;;;;;1.17;0.10;;;;;;;20.13;46.34;100318.88;5008372;28;20033;-45
2022/02/22 06:46:19;;;;;;;0.40;0.17;;;;;;;20.15;46.10;100318.66;5008783;28;20412;-48
2022/02/22 06:48:44;;;;;;;0.70;0.20;;;;;;;20.20;46.27;100332.06;5008875;28;20276;-46
2022/02/22 06:51:10;;;;;;;0.30;0.10;;;;;;;20.21;45.96;100326.56;5009294;28;20100;-49
2022/02/22 06:53:35;;;;;;;0.55;0.20;;;;;;;20.26;46.27;100327.78;5009114;28;20477;-45
2022/02/22 06:56:02;;;;;;;0.63;0.20;;;;;;;20.29;46.01;100335.28;5008822;28;20458;-48
2022/02/22 06:58:28;;;;;;;0.70;0.20;;;;;;;20.31;45.98;100344.63;5008610;28;20142;-46
2022/02/22 07:00:55;;;;;;;0.40;0.10;;;;;;;20.34;45.67;100341.53;5008059;28;20120;-45
2022/02/22 07:03:21;;;;;;;0.47;0.10;;;;;;;20.35;45.69;100350.28;5008595;28;20461;-46
2022/02/22 07:05:47;;;;;;;0.68;0.15;;;;;;;20.36;45.80;100347.44;5008147;28;20061;-42
2022/02/22 07:08:12;;;;;;;1.85;0.20;;;;;;;20.39;45.43;100356.81;5011713;28;20032;-49
2022/02/22 07:10:38;;;;;;;0.40;0.20;;;;;;;20.40;45.42;100369.03;5006550;28;20295;-49
2022/02/22 07:13:04;;;;;;;0.50;0.10;;;;;;;20.40;45.42;100376.97;5000239;28;20439;-41
2022/02/22 07:15:29;;;;;;;1.30;0.28;;;;;;;20.41;45.49;100381.22;5008504;28;20068;-45
2022/02/22 07:17:58;;;;;;;0.65;0.28;;;;;;;20.40;45.37;100387.56;5008198;28;20067;-45
2022/02/22 07:20:25;;;;;;;0.82;0.20;;;;;;;20.39;45.33;100386.75;4990720;28;20492;-48
2022/02/22 07:22:52;;;;;;;0.43;0.20;;;;;;;20.40;45.53;100395.50;5007404;28;20700;-43
2022/02/22 07:25:19;;;;;;;0.40;0.20;;;;;;;20.40;45.51;100393.66;4986726;28;20034;-44
2022/02/22 07:27:45;;;;;;;2.33;0.30;;;;;;;20.39;45.19;100394.69;5006397;28;20096;-48
2022/02/22 07:30:13;;;;;;;0.25;0.10;;;;;;;20.41;45.13;100403.22;5002696;28;20628;-49
2022/02/22 07:32:39;;;;;;;0.75;0.10;;;;;;;20.38;45.30;100403.63;5005353;28;20033;-43
2022/02/22 07:35:06;;;;;;;0.60;0.22;;;;;;;20.38;45.49;100413.41;5005109;28;20046;-48
2022/02/22 07:37:33;;;;;;;1.65;0.20;;;;;;;20.38;45.67;100408.13;5007745;28;20036;-49
2022/02/22 07:39:59;;;;;;;0.70;0.20;;;;;;;20.37;45.55;100411.75;4988460;28;20038;-45
2022/02/22 07:42:24;;;;;;;0.45;0.20;;;;;;;20.36;45.84;100428.66;5005610;28;20625;-43
2022/02/22 07:44:50;;;;;;;0.60;0.20;;;;;;;20.34;45.90;100428.84;5005408;28;20022;-51
2022/02/22 07:47:16;;;;;;;0.82;0.20;;;;;;;20.33;45.68;100431.72;5007650;28;20419;-49
2022/02/22 07:49:45;;;;;;;0.40;0.17;;;;;;;20.32;45.83;100441.47;5006398;28;20037;-41
2022/02/22 07:52:11;;;;;;;0.63;0.10;;;;;;;20.31;46.10;100439.06;5006422;28;20488;-47
2022/02/22 07:54:37;;;;;;;0.40;0.15;;;;;;;20.29;46.32;100433.19;5005681;28;20030;-54
2022/02/22 07:57:03;;;;;;;1.52;0.20;;;;;;;20.27;46.14;100446.59;5005804;28;20041;-44
2022/02/22 07:59:28;;;;;;;4.18;0.30;;;;;;;20.27;46.26;100440.50;5005795;28;20057;-45
2022/02/22 08:01:54;;;;;;;0.95;0.20;;;;;;;20.27;46.47;100445.78;5003935;28;20034;-49
2022/02/22 08:04:20;;;;;;;2.35;0.20;;;;;;;20.25;46.57;100435.41;5004634;28;20034;-47
2022/02/22 08:06:46;;;;;;;1.65;0.30;;;;;;;20.25;46.66;100439.91;4988234;28;20037;-53
2022/02/22 08:09:11;;;;;;;5.65;0.50;;;;;;;20.21;46.54;100440.31;5005662;28;20092;-45
2022/02/22 08:11:37;;;;;;;0.52;0.20;;;;;;;20.22;46.68;100441.13;5002059;28;20056;-51
2022/02/22 08:14:02;;;;;;;3.95;0.20;;;;;;;20.19;46.56;100437.06;5006059;28;20018;-41
2022/02/22 08:16:29;;;;;;;1.70;0.20;;;;;;;20.18;46.62;100442.56;5005067;28;20060;-41
2022/02/22 08:18:55;;;;;;;2.83;0.20;;;;;;;20.18;46.96;100456.59;5005966;28;20030;-44
2022/02/22 08:21:22;;;;;;;6.22;0.20;;;;;;;20.17;46.60;100465.56;5006308;28;20030;-47
2022/02/22 08:23:48;;;;;;;1.88;0.20;;;;;;;20.16;46.78;100469.22;5004823;28;20048;-49
2022/02/22 08:26:14;;;;;;;3.92;0.47;;;;;;;20.19;47.26;100468.81;5004343;28;20038;-51
2022/02/22 08:28:39;;;;;;;6.72;0.38;;;;;;;20.24;47.89;100484.06;5006055;28;20030;-43
2022/02/22 08:31:05;;;;;;;5.05;0.20;;;;;;;20.26;48.00;100475.91;5006161;28;20026;-50
2022/02/22 08:33:31;;;;;;;5.72;0.35;;;;;;;20.29;48.63;100492.19;5003678;28;20106;-42
2022/02/22 08:35:57;;;;;;;1.08;0.20;;;;;;;20.32;48.94;100491.75;5002427;28;20469;-41
2022/02/22 08:38:22;;;;;;;10.55;1.67;;;;;;;20.34;49.49;100491.53;4999058;28;20157;-44
2022/02/22 08:40:49;;;;;;;279.15;61.20;;;;;;;20.34;51.50;100497.66;5005575;28;20041;-49
2022/02/22 08:43:15;;;;;;;221.05;43.13;;;;;;;20.37;52.54;100502.53;4988779;28;20097;-47
2022/02/22 08:45:42;;;;;;;92.78;19.20;;;;;;;20.37;51.50;100497.22;5005286;28;20096;-46
2022/02/22 08:48:07;;;;;;;79.25;15.23;;;;;;;20.35;51.43;100499.28;4987014;28;20069;-41
2022/02/22 08:50:33;;;;;;;66.22;13.23;;;;;;;20.34;51.05;100496.84;4998687;28;20113;-51
2022/02/22 08:52:59;;;;;;;52.72;10.15;;;;;;;20.31;51.07;100502.56;5004929;28;20029;-48
2022/02/22 08:55:24;;;;;;;33.75;8.82;;;;;;;20.30;50.63;100493.00;5005878;28;20096;-57
2022/02/22 08:57:50;;;;;;;42.20;9.30;;;;;;;20.28;50.09;100498.50;5006968;28;20057;-40
2022/02/22 09:00:16;;;;;;;42.08;7.15;;;;;;;20.24;50.14;100491.19;5006549;28;20426;-54
2022/02/22 09:02:42;;;;;;;36.10;6.78;;;;;;;20.23;50.03;100494.84;5005539;28;20342;-51
2022/02/22 09:05:09;;;;;;;30.08;6.57;;;;;;;20.22;49.65;100494.03;5007052;28;20030;-46
2022/02/22 09:07:35;;;;;;;36.35;5.72;;;;;;;20.21;49.71;100495.06;5010805;28;20041;-45
2022/02/22 09:10:00;;;;;;;29.35;6.38;;;;;;;20.21;49.39;100495.06;5008978;28;20077;-44
2022/02/22 09:12:27;;;;;;;30.70;5.07;;;;;;;20.21;49.38;100493.22;4988078;28;20127;-47
2022/02/22 09:14:54;;;;;;;22.70;4.72;;;;;;;20.21;49.27;100492.41;4992628;28;20038;-45
2022/02/22 09:17:20;;;;;;;25.52;4.63;;;;;;;20.19;49.50;100500.53;5006317;28;20037;-46
2022/02/22 09:19:45;;;;;;;22.60;4.85;;;;;;;20.17;49.42;100496.47;5009871;28;20048;-43
2022/02/22 09:22:11;;;;;;;18.15;4.43;;;;;;;20.14;49.50;100503.00;5007437;28;20030;-42
2022/02/22 09:24:37;;;;;;;21.05;5.63;;;;;;;20.12;49.60;100491.81;4990577;28;20362;-44
2022/02/22 09:27:04;;;;;;;27.25;4.40;;;;;;;20.13;49.88;100488.16;5008951;28;20038;-50
2022/02/22 09:29:29;;;;;;;16.05;3.88;;;;;;;20.11;50.08;100495.47;5007619;28;20026;-58
2022/02/22 09:31:55;;;;;;;22.52;3.58;;;;;;;20.09;50.07;100499.34;5007777;28;20033;-57
2022/02/22 09:34:22;;;;;;;18.85;2.78;;;;;;;20.05;49.63;100498.13;5007858;28;20014;-52
2022/02/22 09:36:48;;;;;;;11.90;2.40;;;;;;;20.01;49.59;100495.06;4988573;28;20038;-42
2022/02/22 09:39:14;;;;;;;17.65;2.95;;;;;;;20.00;49.00;100497.91;4989090;28;20252;-50
2022/02/22 09:41:40;;;;;;;19.88;3.38;;;;;;;20.00;48.67;100488.16;5010626;28;20029;-47
2022/02/22 09:44:06;;;;;;;20.15;2.55;;;;;;;20.00;48.77;100501.38;5010845;28;20033;-48
2022/02/22 09:46:32;;;;;;;16.70;2.63;;;;;;;20.01;48.56;100497.72;5010054;28;20041;-47
2022/02/22 09:48:57;;;;;;;15.57;2.00;;;;;;;20.01;48.46;100503.00;5009784;28;20034;-54
2022/02/22 09:51:23;;;;;;;11.50;1.98;;;;;;;20.00;48.85;100501.38;4992023;28;20037;-40
2022/02/22 09:53:48;;;;;;;17.73;3.28;;;;;;;20.00;48.74;100500.56;5009962;28;20040;-45
2022/02/22 09:56:14;;;;;;;11.82;2.88;;;;;;;20.00;48.46;100501.38;5010548;28;20041;-50
2022/02/22 09:58:40;;;;;;;12.55;3.13;;;;;;;19.99;48.67;100491.00;5009761;28;20026;-53
2022/02/22 10:01:05;;;;;;;11.38;2.25;;;;;;;19.98;48.51;100498.13;5010293;28;20466;-49
2022/02/22 10:03:31;;;;;;;13.20;3.40;;;;;;;19.98;48.75;100492.03;5009423;28;20034;-44
2022/02/22 10:06:00;;;;;;;9.10;1.58;;;;;;;19.95;48.49;100487.97;5009615;28;20160;-49
2022/02/22 10:08:33;;;;;;;16.00;2.25;;;;;;;19.92;48.81;100480.44;5009929;28;20061;-49
2022/02/22 10:11:05;;;;;;;11.18;2.45;;;;;;;19.91;48.79;100499.97;5009516;28;20057;-54
2022/02/22 10:13:32;;;;;;;11.48;2.25;;;;;;;19.90;48.56;100493.03;5009208;28;20396;-49
2022/02/22 10:15:58;;;;;;;10.10;1.95;;;;;;;19.88;48.78;100493.25;5009039;28;20157;-49
2022/02/22 10:18:25;;;;;;;9.80;2.00;;;;;;;19.87;48.78;100502.19;5008512;28;20029;-48
2022/02/22 10:20:51;;;;;;;9.25;1.90;;;;;;;19.87;48.83;100504.03;5009474;28;20765;-44
2022/02/22 10:23:43;;;;;;;11.60;2.13;;;;;;;19.84;49.01;100512.41;5009626;28;20030;-53
2022/02/22 10:26:19;;;;;;;7.13;1.70;;;;;;;19.83;48.67;100516.06;5003026;28;20054;-46
2022/02/22 10:28:45;;;;;;;11.60;1.80;;;;;;;19.84;49.00;100502.63;5004710;28;20404;-42
2022/02/22 10:31:10;;;;;;;8.55;1.40;;;;;;;19.83;48.78;100506.28;5007807;28;20042;-51
2022/02/22 10:33:41;;;;;;;3.15;0.60;;;;;;;19.73;45.37;100499.78;5002401;28;20133;-47
2022/02/22 10:36:08;;;;;;;23.17;1.55;;;;;;;19.58;43.08;100505.25;5009088;28;20543;-45
2022/02/22 10:38:36;;;;;;;11.40;0.52;;;;;;;19.52;41.19;100509.50;4991778;28;20029;-46
2022/02/22 10:41:06;;;;;;;2.38;0.60;;;;;;;19.46;40.55;100505.00;5009442;28;20022;-42
2022/02/22 10:43:36;;;;;;;5.47;0.40;;;;;;;19.47;40.51;100503.16;5008972;28;20030;-44
2022/02/22 10:46:07;;;;;;;6.07;0.75;;;;;;;19.48;40.72;100507.44;5008789;28;20034;-51
2022/02/22 10:48:33;;;;;;;9.10;0.60;;;;;;;19.49;40.89;100504.59;5007071;28;20040;-55
2022/02/22 10:51:01;;;;;;;2.72;0.40;;;;;;;19.48;40.72;100500.34;4992177;28;20490;-54
2022/02/22 10:53:29;;;;;;;3.65;0.40;;;;;;;19.48;40.72;100499.50;5002901;28;20140;-46
2022/02/22 10:55:56;;;;;;;1.17;0.38;;;;;;;19.46;40.82;100499.72;5004447;28;20026;-47
2022/02/22 10:58:23;;;;;;;2.88;0.20;;;;;;;19.46;40.74;100499.72;4998952;28;20072;-45
2022/02/22 11:00:49;;;;;;;5.82;0.50;;;;;;;19.47;40.64;100501.34;5000112;28;20547;-51
2022/02/22 11:03:15;;;;;;;4.40;0.45;;;;;;;19.48;40.34;100497.69;5005224;28;20026;-46
2022/02/22 11:05:40;;;;;;;1.30;0.40;;;;;;;19.51;40.45;100499.97;5006382;28;20022;-50
2022/02/22 11:08:06;;;;;;;1.23;0.30;;;;;;;19.52;40.53;100498.94;5007420;28;20022;-49
2022/02/22 11:10:33;;;;;;;1.17;0.30;;;;;;;19.52;40.70;100498.13;5000953;28;20043;-42
2022/02/22 11:13:00;;;;;;;2.40;0.28;;;;;;;19.52;40.95;100490.19;5004272;28;20052;-42
2022/02/22 11:15:39;;;;;;;1.75;0.40;;;;;;;19.50;41.48;100495.66;5001630;28;20041;-56
2022/02/22 11:18:20;;;;;;;1.55;0.40;;;;;;;19.48;41.59;100489.75;4989572;28;20076;-48
2022/02/22 11:20:45;;;;;;;3.55;0.40;;;;;;;19.50;42.25;100493.00;5007249;28;20038;-49